createdAt,value
2022-08-18T00:00:38.118Z,9.25
2022-08-18T00:01:39.566Z,9.26
2022-08-18T00:02:40.350Z,9.47
2022-08-18T00:03:57.122Z,8.97
2022-08-18T00:05:00.321Z,9.26
2022-08-18T00:05:57.722Z,8.77
2022-08-18T00:06:55.798Z,8.71
2022-08-18T00:07:53.123Z,8.25
2022-08-18T00:08:52.966Z,9.05
2022-08-18T00:09:50.644Z,8.73
2022-08-18T00:10:48.049Z,8.49
2022-08-18T00:11:45.627Z,8.09
2022-08-18T00:12:45.643Z,8.41
2022-08-18T00:13:42.979Z,8.89
2022-08-18T00:14:40.367Z,8.91
2022-08-18T00:15:48.762Z,8.35
2022-08-18T00:16:47.399Z,8.49
2022-08-18T00:17:45.336Z,8.84
2022-08-18T00:18:42.689Z,8.36
2022-08-18T00:19:45.944Z,8.78
2022-08-18T00:20:45.678Z,8.66
2022-08-18T00:21:43.053Z,8.52
2022-08-18T00:22:40.889Z,8.92
2022-08-18T00:23:38.845Z,9.60
2022-08-18T00:24:36.372Z,8.90
2022-08-18T00:25:45.608Z,9.09
2022-08-18T00:26:43.118Z,9.30
2022-08-18T00:27:46.487Z,9.11
2022-08-18T00:28:43.844Z,9.42
2022-08-18T00:29:41.249Z,8.95
2022-08-18T00:30:38.652Z,9.09
2022-08-18T00:31:36.060Z,8.79
2022-08-18T00:32:36.077Z,8.97
2022-08-18T00:33:33.432Z,8.52
2022-08-18T00:34:30.818Z,9.20
2022-08-18T00:35:32.476Z,8.70
2022-08-18T00:36:32.470Z,8.79
2022-08-18T00:37:29.935Z,8.75
2022-08-18T00:38:27.410Z,9.14
2022-08-18T00:39:24.773Z,9.51
2022-08-18T00:40:24.548Z,9.28
2022-08-18T00:41:26.241Z,8.84
2022-08-18T00:42:29.072Z,9.24
2022-08-18T00:43:40.149Z,9.77
2022-08-18T00:44:37.685Z,9.52
2022-08-18T00:45:37.119Z,8.93
2022-08-18T00:46:36.703Z,9.58
2022-08-18T00:47:42.268Z,9.29
2022-08-18T00:48:40.585Z,9.47
2022-08-18T00:49:51.444Z,9.31
2022-08-18T00:50:48.797Z,9.62
2022-08-18T00:51:49.791Z,9.19
2022-08-18T00:52:53.487Z,9.82
2022-08-18T00:53:55.402Z,9.40
2022-08-18T00:54:55.472Z,9.55
2022-08-18T00:55:54.810Z,9.13
2022-08-18T00:56:55.540Z,9.51
2022-08-18T00:57:55.288Z,9.11
2022-08-18T00:58:56.998Z,9.62
2022-08-18T01:00:03.241Z,9.33
2022-08-18T01:01:03.781Z,8.94
2022-08-18T01:02:04.090Z,8.82
2022-08-18T01:03:05.042Z,9.68
2022-08-18T01:04:08.418Z,9.57
2022-08-18T01:05:06.026Z,9.83
2022-08-18T01:06:08.569Z,9.66
2022-08-18T01:07:11.217Z,9.90
2022-08-18T01:08:14.340Z,9.22
2022-08-18T01:09:11.964Z,9.22
2022-08-18T01:10:09.530Z,9.26
2022-08-18T01:11:07.230Z,9.68
2022-08-18T01:12:43.931Z,9.85
2022-08-18T01:13:27.361Z,9.26
2022-08-18T01:14:24.884Z,9.49
2022-08-18T01:15:28.814Z,9.64
2022-08-18T01:16:52.361Z,10.31
2022-08-18T01:18:13.590Z,10.39
2022-08-18T01:19:29.525Z,9.41
2022-08-18T01:20:50.549Z,9.56
2022-08-18T01:21:52.332Z,9.29
2022-08-18T01:22:49.837Z,9.25
2022-08-18T01:23:48.741Z,9.31
2022-08-18T01:25:04.616Z,9.23
2022-08-18T01:26:03.786Z,9.82
2022-08-18T01:27:01.256Z,9.27
2022-08-18T01:28:01.015Z,9.55
2022-08-18T01:29:05.192Z,9.42
2022-08-18T01:30:06.106Z,9.27
2022-08-18T01:31:04.065Z,9.10
2022-08-18T01:32:01.434Z,8.47
2022-08-18T01:32:59.111Z,9.57
2022-08-18T01:33:57.329Z,9.47
2022-08-18T01:34:54.976Z,8.76
2022-08-18T01:35:53.407Z,8.59
2022-08-18T01:36:52.521Z,9.39
2022-08-18T01:37:50.503Z,9.63
2022-08-18T01:38:50.475Z,9.59
2022-08-18T01:41:23.718Z,9.37
2022-08-18T01:41:25.705Z,10.05
2022-08-18T01:42:24.822Z,9.96
2022-08-18T01:43:22.171Z,9.74
2022-08-18T01:44:19.607Z,9.30
2022-08-18T01:45:18.215Z,10.17
2022-08-18T01:46:22.096Z,9.46
2022-08-18T01:47:20.756Z,9.90
2022-08-18T01:48:18.122Z,10.04
2022-08-18T01:49:15.530Z,9.26
2022-08-18T01:50:13.405Z,9.75
2022-08-18T01:51:13.113Z,9.87
2022-08-18T01:52:11.917Z,10.26
2022-08-18T01:53:11.548Z,10.77
2022-08-18T01:54:11.453Z,9.98
2022-08-18T01:55:09.118Z,9.70
2022-08-18T01:56:07.346Z,9.57
2022-08-18T01:57:04.874Z,9.51
2022-08-18T01:58:02.730Z,9.38
2022-08-18T01:59:00.118Z,9.86
2022-08-18T02:00:01.004Z,8.94
2022-08-18T02:01:01.689Z,9.02
2022-08-18T02:02:00.231Z,9.55
2022-08-18T02:03:01.825Z,9.79
2022-08-18T02:04:23.444Z,9.62
2022-08-18T02:05:28.925Z,9.41
2022-08-18T02:06:33.775Z,10.12
2022-08-18T02:07:36.020Z,10.09
2022-08-18T02:08:33.986Z,9.47
2022-08-18T02:09:31.531Z,9.29
2022-08-18T02:10:29.020Z,9.46
2022-08-18T02:11:26.439Z,9.71
2022-08-18T02:12:23.829Z,9.17
2022-08-18T02:13:21.192Z,9.64
2022-08-18T02:14:18.596Z,9.15
2022-08-18T02:15:22.996Z,9.40
2022-08-18T02:16:20.455Z,9.19
2022-08-18T02:17:17.842Z,10.00
2022-08-18T02:18:25.915Z,10.28
2022-08-18T02:19:42.156Z,10.40
2022-08-18T02:20:40.635Z,10.45
2022-08-18T02:21:38.703Z,10.25
2022-08-18T02:22:36.440Z,10.44
2022-08-18T02:23:33.931Z,10.78
2022-08-18T02:24:31.780Z,10.20
2022-08-18T02:25:29.134Z,10.05
2022-08-18T02:26:26.634Z,10.24
2022-08-18T02:27:24.020Z,9.87
2022-08-18T02:28:21.357Z,10.10
2022-08-18T02:29:18.791Z,10.60
2022-08-18T02:30:18.398Z,10.62
2022-08-18T02:31:18.066Z,10.29
2022-08-18T02:32:15.479Z,10.04
2022-08-18T02:33:12.868Z,10.26
2022-08-18T02:34:10.228Z,9.95
2022-08-18T02:35:11.596Z,10.88
2022-08-18T02:36:09.675Z,10.67
2022-08-18T02:37:08.425Z,10.19
2022-08-18T02:38:07.781Z,10.22
2022-08-18T02:39:05.174Z,10.07
2022-08-18T02:40:02.676Z,10.56
2022-08-18T02:41:01.699Z,10.61
2022-08-18T02:41:59.053Z,10.03
2022-08-18T02:42:56.487Z,10.43
2022-08-18T02:43:53.899Z,10.24
2022-08-18T02:44:51.806Z,9.93
2022-08-18T02:45:50.501Z,9.78
2022-08-18T02:46:52.062Z,10.04
2022-08-18T02:47:53.540Z,10.64
2022-08-18T02:48:52.769Z,10.20
2022-08-18T02:49:50.161Z,10.81
2022-08-18T02:50:47.660Z,10.19
2022-08-18T02:51:46.001Z,10.90
2022-08-18T02:52:43.379Z,10.94
2022-08-18T02:53:43.303Z,11.27
2022-08-18T02:54:40.852Z,10.96
2022-08-18T02:55:38.240Z,10.73
2022-08-18T02:56:41.269Z,11.30
2022-08-18T02:57:44.768Z,11.38
2022-08-18T02:58:42.476Z,10.87
2022-08-18T02:59:40.892Z,10.49
2022-08-18T03:00:39.102Z,10.33
2022-08-18T03:01:38.599Z,10.80
2022-08-18T03:02:36.038Z,11.04
2022-08-18T03:03:33.471Z,10.61
2022-08-18T03:04:31.429Z,10.92
2022-08-18T03:05:30.402Z,10.49
2022-08-18T03:06:29.066Z,10.21
2022-08-18T03:07:26.459Z,10.75
2022-08-18T03:08:23.873Z,9.98
2022-08-18T03:09:22.024Z,10.36
2022-08-18T03:10:33.116Z,10.34
2022-08-18T03:11:31.950Z,10.00
2022-08-18T03:12:29.501Z,10.12
2022-08-18T03:13:27.017Z,10.58
2022-08-18T03:14:25.584Z,9.97
2022-08-18T03:15:23.659Z,10.42
2022-08-18T03:16:27.315Z,10.38
2022-08-18T03:17:24.647Z,10.57
2022-08-18T03:18:23.238Z,11.00
2022-08-18T03:19:21.182Z,10.78
2022-08-18T03:20:18.640Z,10.95
2022-08-18T03:21:30.294Z,10.81
2022-08-18T03:22:29.543Z,11.02
2022-08-18T03:23:30.347Z,10.79
2022-08-18T03:24:28.713Z,10.87
2022-08-18T03:25:26.131Z,10.55
2022-08-18T03:26:25.434Z,9.88
2022-08-18T03:27:22.925Z,10.22
2022-08-18T03:28:20.884Z,10.93
2022-08-18T03:29:18.645Z,10.48
2022-08-18T03:30:16.033Z,10.14
2022-08-18T03:31:14.894Z,10.25
2022-08-18T03:32:12.255Z,10.37
2022-08-18T03:33:10.780Z,10.46
2022-08-18T03:34:08.607Z,10.68
2022-08-18T03:35:06.532Z,10.49
2022-08-18T03:36:05.227Z,10.83
2022-08-18T03:37:02.758Z,10.75
2022-08-18T03:38:00.710Z,10.71
2022-08-18T03:38:58.952Z,10.93
2022-08-18T03:39:56.489Z,10.47
2022-08-18T03:40:53.956Z,9.98
2022-08-18T03:41:57.936Z,10.56
2022-08-18T03:42:56.772Z,11.07
2022-08-18T03:43:54.375Z,10.56
2022-08-18T03:44:52.473Z,10.40
2022-08-18T03:45:49.881Z,10.73
2022-08-18T03:46:48.032Z,10.62
2022-08-18T03:47:46.120Z,10.63
2022-08-18T03:48:43.978Z,10.36
2022-08-18T03:49:41.946Z,10.06
2022-08-18T03:50:39.338Z,10.30
2022-08-18T03:51:37.038Z,9.81
2022-08-18T03:52:37.863Z,9.73
2022-08-18T03:53:39.879Z,10.01
2022-08-18T03:54:38.950Z,9.71
2022-08-18T03:55:36.298Z,9.89
2022-08-18T03:56:36.368Z,10.14
2022-08-18T03:57:38.916Z,10.38
2022-08-18T03:58:37.253Z,10.39
2022-08-18T03:59:34.658Z,10.58
2022-08-18T04:00:32.380Z,10.69
2022-08-18T04:01:33.052Z,10.69
2022-08-18T04:02:30.457Z,9.36
2022-08-18T04:03:28.268Z,9.97
2022-08-18T04:04:27.554Z,10.09
2022-08-18T04:05:25.497Z,10.22
2022-08-18T04:06:30.144Z,10.37
2022-08-18T04:07:27.970Z,10.01
2022-08-18T04:08:25.392Z,10.15
2022-08-18T04:09:24.596Z,10.15
2022-08-18T04:10:21.964Z,9.97
2022-08-18T04:11:19.645Z,10.25
2022-08-18T04:12:17.580Z,10.55
2022-08-18T04:13:15.125Z,10.90
2022-08-18T04:14:13.575Z,11.29
2022-08-18T04:15:11.668Z,11.12
2022-08-18T04:16:09.572Z,10.69
2022-08-18T04:17:06.930Z,10.25
2022-08-18T04:18:04.691Z,10.64
2022-08-18T04:19:05.011Z,10.32
2022-08-18T04:20:02.533Z,9.94
2022-08-18T04:21:05.357Z,10.71
2022-08-18T04:22:06.164Z,10.54
2022-08-18T04:23:03.620Z,11.26
2022-08-18T04:24:05.319Z,10.44
2022-08-18T04:25:02.782Z,10.60
2022-08-18T04:26:01.631Z,10.58
2022-08-18T04:27:00.882Z,10.70
2022-08-18T04:28:01.164Z,10.68
2022-08-18T04:29:01.305Z,10.88
2022-08-18T04:29:58.782Z,11.11
2022-08-18T04:30:59.592Z,10.70
2022-08-18T04:31:57.101Z,10.76
2022-08-18T04:32:54.672Z,10.13
2022-08-18T04:33:52.082Z,10.47
2022-08-18T04:34:49.628Z,10.46
2022-08-18T04:35:47.204Z,9.77
2022-08-18T04:36:45.134Z,10.41
2022-08-18T04:37:43.922Z,10.81
2022-08-18T04:38:44.931Z,10.48
2022-08-18T04:39:42.715Z,10.19
2022-08-18T04:40:41.537Z,10.13
2022-08-18T04:41:40.063Z,9.86
2022-08-18T04:42:40.168Z,10.05
2022-08-18T04:43:42.224Z,10.08
2022-08-18T04:44:39.651Z,10.19
2022-08-18T04:45:38.361Z,10.36
2022-08-18T04:46:37.722Z,10.77
2022-08-18T04:47:36.200Z,10.33
2022-08-18T04:48:43.379Z,10.66
2022-08-18T04:49:40.897Z,10.21
2022-08-18T04:50:39.263Z,10.23
2022-08-18T04:52:22.610Z,10.43
2022-08-18T04:53:16.704Z,11.01
2022-08-18T04:54:14.036Z,10.57
2022-08-18T04:55:11.832Z,10.37
2022-08-18T04:56:09.262Z,10.81
2022-08-18T04:57:17.902Z,10.78
2022-08-18T04:58:16.443Z,10.93
2022-08-18T04:59:14.372Z,10.99
2022-08-18T05:00:13.914Z,11.01
2022-08-18T05:01:11.494Z,10.26
2022-08-18T05:02:14.111Z,10.60
2022-08-18T05:03:12.724Z,10.38
2022-08-18T05:04:10.324Z,10.68
2022-08-18T05:05:08.097Z,10.62
2022-08-18T05:06:07.293Z,10.72
2022-08-18T05:07:10.678Z,10.80
2022-08-18T05:08:08.055Z,10.54
2022-08-18T05:09:08.837Z,10.19
2022-08-18T05:10:06.330Z,10.09
2022-08-18T05:11:04.431Z,10.68
2022-08-18T05:12:02.807Z,10.30
2022-08-18T05:13:00.191Z,9.99
2022-08-18T05:13:58.076Z,10.81
2022-08-18T05:14:57.312Z,10.06
2022-08-18T05:16:10.108Z,9.95
2022-08-18T05:17:09.379Z,10.15
2022-08-18T05:18:06.735Z,9.66
2022-08-18T05:19:13.750Z,9.90
2022-08-18T05:20:11.335Z,9.97
2022-08-18T05:21:14.337Z,9.80
2022-08-18T05:22:17.751Z,9.87
2022-08-18T05:23:17.328Z,10.13
2022-08-18T05:24:14.762Z,10.25
2022-08-18T05:25:12.476Z,10.17
2022-08-18T05:26:10.845Z,9.61
2022-08-18T05:27:08.323Z,10.13
2022-08-18T05:28:05.728Z,10.39
2022-08-18T05:29:19.154Z,9.94
2022-08-18T05:30:17.269Z,9.52
2022-08-18T05:31:22.556Z,10.20
2022-08-18T05:32:38.334Z,9.86
2022-08-18T05:33:40.186Z,9.94
2022-08-18T05:34:37.621Z,9.94
2022-08-18T05:35:55.196Z,9.41
2022-08-18T05:37:01.237Z,9.78
2022-08-18T05:38:12.067Z,9.66
2022-08-18T05:39:09.811Z,10.28
2022-08-18T05:40:11.394Z,9.73
2022-08-18T05:41:13.707Z,9.74
2022-08-18T05:42:14.662Z,9.79
2022-08-18T05:43:15.328Z,9.98
2022-08-18T05:44:15.506Z,10.27
2022-08-18T05:45:15.876Z,9.68
2022-08-18T05:46:13.610Z,10.06
2022-08-18T05:47:15.202Z,9.95
2022-08-18T05:48:14.136Z,9.83
2022-08-18T05:49:15.040Z,10.12
2022-08-18T05:50:17.259Z,10.34
2022-08-18T05:51:18.324Z,10.30
2022-08-18T05:52:38.736Z,10.06
2022-08-18T05:53:54.680Z,9.74
2022-08-18T05:55:14.056Z,10.15
2022-08-18T05:56:31.742Z,10.38
2022-08-18T05:57:33.716Z,10.53
2022-08-18T05:58:37.920Z,10.48
2022-08-18T05:59:38.967Z,10.54
2022-08-18T06:00:38.111Z,11.09
2022-08-18T06:01:41.816Z,10.64
2022-08-18T06:02:46.048Z,10.39
2022-08-18T06:03:50.766Z,10.38
2022-08-18T06:05:00.462Z,10.77
2022-08-18T06:06:05.048Z,10.10
2022-08-18T06:07:05.578Z,10.20
2022-08-18T06:08:09.032Z,10.03
2022-08-18T06:09:13.903Z,10.37
2022-08-18T06:10:12.913Z,10.90
2022-08-18T06:11:22.465Z,10.80
2022-08-18T06:12:30.653Z,10.33
2022-08-18T06:13:28.168Z,10.07
2022-08-18T06:14:25.890Z,10.34
2022-08-18T06:15:24.245Z,9.96
2022-08-18T06:16:34.037Z,10.62
2022-08-18T06:17:49.061Z,10.58
2022-08-18T06:18:52.229Z,9.65
2022-08-18T06:19:56.995Z,10.20
2022-08-18T06:20:57.191Z,10.01
2022-08-18T06:21:57.450Z,9.66
2022-08-18T06:23:14.989Z,9.77
2022-08-18T06:24:30.936Z,9.59
2022-08-18T06:25:46.863Z,9.36
2022-08-18T06:26:57.822Z,9.55
2022-08-18T06:28:01.331Z,9.56
2022-08-18T06:29:03.124Z,8.85
2022-08-18T06:30:04.708Z,9.50
2022-08-18T06:31:14.001Z,9.25
2022-08-18T06:32:20.601Z,9.07
2022-08-18T06:33:36.922Z,8.85
2022-08-18T06:34:34.261Z,9.48
2022-08-18T06:35:49.586Z,9.55
2022-08-18T06:36:55.422Z,9.15
2022-08-18T06:38:20.487Z,8.90
2022-08-18T06:39:20.592Z,9.66
2022-08-18T06:40:17.979Z,8.87
2022-08-18T06:41:42.354Z,9.10
2022-08-18T06:42:41.531Z,9.57
2022-08-18T06:43:43.455Z,8.51
2022-08-18T06:44:45.725Z,9.05
2022-08-18T06:45:48.532Z,8.60
2022-08-18T06:46:50.209Z,8.92
2022-08-18T06:47:53.147Z,8.97
2022-08-18T06:48:55.402Z,8.99
2022-08-18T06:49:55.471Z,8.71
2022-08-18T06:51:01.022Z,8.91
2022-08-18T06:51:58.525Z,9.00
2022-08-18T06:52:58.207Z,9.25
2022-08-18T06:54:21.671Z,8.61
2022-08-18T06:55:31.322Z,8.46
2022-08-18T06:56:40.665Z,8.69
2022-08-18T06:57:40.127Z,9.03
2022-08-18T06:58:37.479Z,9.52
2022-08-18T06:59:36.696Z,9.18
2022-08-18T07:00:36.689Z,9.27
2022-08-18T07:01:34.883Z,9.27
2022-08-18T07:02:40.374Z,9.60
2022-08-18T07:03:38.083Z,8.61
2022-08-18T07:04:38.315Z,9.06
2022-08-18T07:05:37.105Z,9.11
2022-08-18T07:06:35.749Z,9.54
2022-08-18T07:07:40.200Z,8.93
2022-08-18T07:08:41.102Z,9.04
2022-08-18T07:09:38.553Z,9.02
2022-08-18T07:10:40.817Z,8.81
2022-08-18T07:11:43.270Z,9.17
2022-08-18T07:12:41.192Z,8.90
2022-08-18T07:13:41.875Z,8.64
2022-08-18T07:14:50.882Z,8.23
2022-08-18T07:15:49.919Z,8.85
2022-08-18T07:16:58.452Z,8.78
2022-08-18T07:18:05.041Z,8.97
2022-08-18T07:19:13.138Z,8.60
2022-08-18T07:20:24.696Z,9.02
2022-08-18T07:21:30.346Z,9.37
2022-08-18T07:22:38.901Z,8.79
2022-08-18T07:23:39.201Z,8.96
2022-08-18T07:25:03.026Z,8.82
2022-08-18T07:26:11.286Z,8.92
2022-08-18T07:27:14.931Z,8.61
2022-08-18T07:28:29.860Z,8.83
2022-08-18T07:29:28.561Z,8.82
2022-08-18T07:30:29.347Z,8.66
2022-08-18T07:31:40.917Z,8.79
2022-08-18T07:32:44.639Z,8.77
2022-08-18T07:33:48.282Z,8.51
2022-08-18T07:34:58.184Z,9.09
2022-08-18T07:36:03.409Z,8.66
2022-08-18T07:37:05.481Z,8.35
2022-08-18T07:38:40.965Z,8.55
2022-08-18T07:39:55.933Z,8.76
2022-08-18T07:40:58.046Z,9.38
2022-08-18T07:42:01.977Z,9.26
2022-08-18T07:43:01.093Z,8.79
2022-08-18T07:44:13.569Z,8.91
2022-08-18T07:45:11.445Z,8.30
2022-08-18T07:46:15.776Z,8.57
2022-08-18T07:47:27.866Z,8.68
2022-08-18T07:48:40.181Z,8.41
2022-08-18T07:49:46.072Z,8.28
2022-08-18T07:51:06.731Z,8.36
2022-08-18T07:52:14.622Z,8.60
2022-08-18T07:53:28.386Z,8.14
2022-08-18T07:54:48.840Z,8.92
2022-08-18T07:55:52.594Z,9.19
2022-08-18T07:57:00.001Z,8.77
2022-08-18T07:58:12.937Z,9.16
2022-08-18T07:59:16.213Z,8.69
2022-08-18T08:00:54.774Z,8.77
2022-08-18T08:01:50.007Z,8.87
2022-08-18T08:02:56.509Z,8.73
2022-08-18T08:03:54.085Z,8.48
2022-08-18T08:05:10.778Z,9.60
2022-08-18T08:06:11.765Z,8.44
2022-08-18T08:07:27.470Z,8.70
2022-08-18T08:08:37.719Z,8.78
2022-08-18T08:10:05.001Z,9.15
2022-08-18T08:11:09.519Z,8.92
2022-08-18T08:12:27.205Z,9.14
2022-08-18T08:13:51.277Z,9.12
2022-08-18T08:14:44.131Z,8.63
2022-08-18T08:16:07.578Z,9.08
2022-08-18T08:17:05.146Z,8.83
2022-08-18T08:18:14.058Z,9.23
2022-08-18T08:19:36.543Z,8.43
2022-08-18T08:20:47.164Z,8.75
2022-08-18T08:21:53.693Z,8.73
2022-08-18T08:23:04.846Z,8.14
2022-08-18T08:24:21.240Z,8.97
2022-08-18T08:25:45.867Z,8.48
2022-08-18T08:26:46.801Z,8.85
2022-08-18T08:27:47.928Z,8.51
2022-08-18T08:28:51.307Z,8.44
2022-08-18T08:29:57.030Z,8.50
2022-08-18T08:31:35.435Z,8.58
2022-08-18T08:32:36.923Z,8.19
2022-08-18T08:33:37.118Z,8.58
2022-08-18T08:34:52.965Z,8.27
2022-08-18T08:35:59.292Z,7.92
2022-08-18T08:37:09.455Z,8.13
2022-08-18T08:38:38.790Z,8.04
2022-08-18T08:39:48.109Z,7.92
2022-08-18T08:40:45.873Z,8.12
2022-08-18T08:41:43.273Z,7.86
2022-08-18T08:42:49.295Z,7.83
2022-08-18T08:44:03.558Z,8.05
2022-08-18T08:45:11.798Z,8.78
2022-08-18T08:46:13.525Z,8.35
2022-08-18T08:47:23.304Z,7.79
2022-08-18T08:48:25.890Z,8.01
2022-08-18T08:49:26.239Z,8.48
2022-08-18T08:50:27.285Z,8.25
2022-08-18T08:51:39.418Z,8.01
2022-08-18T08:52:46.284Z,8.44
2022-08-18T08:53:48.461Z,8.05
2022-08-18T08:54:52.449Z,8.30
2022-08-18T08:55:55.043Z,7.98
2022-08-18T08:56:58.373Z,7.35
2022-08-18T08:58:12.625Z,7.55
2022-08-18T08:59:12.442Z,7.79
2022-08-18T09:00:12.209Z,7.96
2022-08-18T09:01:17.300Z,7.50
2022-08-18T09:02:47.386Z,8.10
2022-08-18T09:04:04.446Z,7.26
2022-08-18T09:05:34.114Z,7.18
2022-08-18T09:06:50.112Z,7.25
2022-08-18T09:08:03.207Z,6.91
2022-08-18T09:09:33.222Z,7.24
2022-08-18T09:10:42.744Z,7.36
2022-08-18T09:11:42.898Z,7.28
2022-08-18T09:12:49.271Z,7.89
2022-08-18T09:13:55.457Z,7.23
2022-08-18T09:14:58.579Z,7.32
2022-08-18T09:15:58.719Z,7.31
2022-08-18T09:17:10.533Z,6.95
2022-08-18T09:18:18.440Z,7.59
2022-08-18T09:19:29.445Z,7.21
2022-08-18T09:20:41.583Z,7.31
2022-08-18T09:21:40.881Z,7.32
2022-08-18T09:22:47.129Z,7.55
2022-08-18T09:23:47.257Z,7.68
2022-08-18T09:24:51.018Z,7.81
2022-08-18T09:25:53.080Z,6.78
2022-08-18T09:26:54.228Z,7.38
2022-08-18T09:28:10.807Z,7.43
2022-08-18T09:29:23.401Z,7.58
2022-08-18T09:30:42.541Z,7.51
2022-08-18T09:31:44.161Z,7.30
2022-08-18T09:32:53.096Z,7.11
2022-08-18T09:34:06.732Z,7.12
2022-08-18T09:35:11.259Z,7.20
2022-08-18T09:36:28.908Z,7.09
2022-08-18T09:37:31.436Z,7.76
2022-08-18T09:38:50.704Z,6.86
2022-08-18T09:40:18.866Z,6.96
2022-08-18T09:41:45.630Z,6.94
2022-08-18T09:43:01.139Z,7.07
2022-08-18T09:44:11.933Z,7.25
2022-08-18T09:45:33.292Z,6.99
2022-08-18T09:46:51.443Z,6.69
2022-08-18T09:47:54.715Z,7.28
2022-08-18T09:49:14.349Z,7.01
2022-08-18T09:50:24.817Z,6.88
2022-08-18T09:51:36.475Z,6.97
2022-08-18T09:52:37.733Z,6.71
2022-08-18T09:53:53.186Z,6.87
2022-08-18T09:54:57.019Z,7.03
2022-08-18T09:56:01.408Z,6.69
2022-08-18T09:57:19.545Z,6.63
2022-08-18T09:58:20.346Z,6.51
2022-08-18T09:59:32.307Z,6.39
2022-08-18T10:00:33.644Z,6.60
2022-08-18T10:01:34.381Z,5.65
2022-08-18T10:02:33.716Z,5.39
2022-08-18T10:03:34.345Z,6.04
2022-08-18T10:04:35.602Z,5.96
2022-08-18T10:05:34.603Z,6.08
2022-08-18T10:06:32.123Z,6.82
2022-08-18T10:07:38.866Z,6.66
2022-08-18T10:09:14.668Z,6.64
2022-08-18T10:11:01.348Z,6.27
2022-08-18T10:11:50.860Z,5.72
2022-08-18T10:12:59.611Z,5.94
2022-08-18T10:14:20.426Z,6.29
2022-08-18T10:17:21.518Z,6.03
2022-08-18T10:18:17.606Z,5.82
2022-08-18T10:19:33.824Z,5.55
2022-08-18T10:20:39.197Z,6.26
2022-08-18T10:21:55.993Z,6.43
2022-08-18T10:22:54.718Z,5.55
2022-08-18T10:24:34.983Z,5.63
2022-08-18T10:25:31.916Z,5.66
2022-08-18T10:26:37.681Z,5.86
2022-08-18T10:27:56.599Z,5.70
2022-08-18T10:28:55.952Z,5.51
2022-08-18T10:29:56.483Z,5.61
2022-08-18T10:31:06.257Z,5.39
2022-08-18T10:32:08.346Z,5.17
2022-08-18T10:33:18.381Z,4.91
2022-08-18T10:34:35.951Z,5.30
2022-08-18T10:35:35.225Z,4.85
2022-08-18T10:36:51.595Z,5.43
2022-08-18T10:37:50.837Z,5.00
2022-08-18T10:38:53.388Z,5.18
2022-08-18T10:40:01.835Z,5.10
2022-08-18T10:41:10.208Z,5.30
2022-08-18T10:42:48.462Z,5.34
2022-08-18T10:43:57.513Z,5.52
2022-08-18T10:45:16.080Z,5.49
2022-08-18T10:46:25.617Z,5.12
2022-08-18T10:47:33.535Z,5.05
2022-08-18T10:48:34.444Z,5.62
2022-08-18T10:49:33.330Z,5.81
2022-08-18T10:50:40.973Z,5.51
2022-08-18T10:51:59.340Z,5.68
2022-08-18T10:54:51.036Z,5.95
2022-08-18T10:55:49.734Z,5.87
2022-08-18T10:56:54.458Z,5.67
2022-08-18T10:58:11.515Z,5.80
2022-08-18T10:59:28.632Z,5.35
2022-08-18T11:00:38.703Z,5.19
2022-08-18T11:01:59.557Z,5.18
2022-08-18T11:04:36.939Z,4.69
2022-08-18T11:05:36.584Z,5.22
2022-08-18T11:06:47.684Z,5.04
2022-08-18T11:09:08.034Z,5.13
2022-08-18T11:10:30.316Z,5.27
2022-08-18T11:11:38.745Z,5.06
2022-08-18T11:12:40.656Z,5.38
2022-08-18T11:13:52.114Z,5.07
2022-08-18T11:15:01.077Z,5.23
2022-08-18T11:16:27.694Z,5.16
2022-08-18T11:17:25.151Z,5.34
2022-08-18T11:18:28.865Z,4.68
2022-08-18T11:19:28.573Z,5.02
2022-08-18T11:20:31.494Z,5.05
2022-08-18T11:21:42.734Z,4.95
2022-08-18T11:22:49.523Z,5.58
2022-08-18T11:24:07.731Z,5.15
2022-08-18T11:25:25.638Z,4.92
2022-08-18T11:26:29.590Z,4.89
2022-08-18T11:27:28.767Z,4.61
2022-08-18T11:29:47.116Z,4.89
2022-08-18T11:30:46.683Z,4.68
2022-08-18T11:31:45.475Z,5.17
2022-08-18T11:32:52.193Z,4.88
2022-08-18T11:33:51.564Z,4.79
2022-08-18T11:34:57.797Z,5.00
2022-08-18T11:35:58.212Z,4.88
2022-08-18T11:37:00.303Z,4.80
2022-08-18T11:38:00.070Z,4.78
2022-08-18T11:38:58.216Z,4.77
2022-08-18T11:39:58.753Z,4.92
2022-08-18T11:41:13.612Z,5.42
2022-08-18T11:42:21.756Z,4.76
2022-08-18T11:43:29.414Z,4.55
2022-08-18T11:44:32.001Z,4.93
2022-08-18T11:45:33.851Z,4.90
2022-08-18T11:46:37.932Z,5.14
2022-08-18T11:47:37.775Z,4.66
2022-08-18T11:49:57.534Z,5.05
2022-08-18T11:50:54.992Z,4.60
2022-08-18T11:51:57.526Z,4.84
2022-08-18T11:53:14.548Z,4.87
2022-08-18T11:54:24.720Z,4.48
2022-08-18T11:55:35.534Z,4.93
2022-08-18T11:56:36.071Z,4.67
2022-08-18T11:57:46.298Z,4.65
2022-08-18T12:00:25.638Z,4.81
2022-08-18T12:01:42.549Z,4.72
2022-08-18T12:02:40.979Z,4.53
2022-08-18T12:03:46.325Z,4.77
2022-08-18T12:04:43.790Z,4.31
2022-08-18T12:05:55.929Z,4.81
2022-08-18T12:06:56.802Z,4.66
2022-08-18T12:07:57.883Z,4.82
2022-08-18T12:08:57.117Z,4.46
2022-08-18T12:10:18.315Z,5.01
2022-08-18T12:11:27.025Z,4.82
2022-08-18T12:12:32.262Z,4.83
2022-08-18T12:13:31.217Z,4.86
2022-08-18T12:14:50.260Z,4.61
2022-08-18T12:16:07.730Z,4.47
2022-08-18T12:17:07.989Z,4.62
2022-08-18T12:18:05.637Z,4.77
2022-08-18T12:19:05.305Z,4.93
2022-08-18T12:20:09.018Z,5.00
2022-08-18T12:21:10.261Z,4.51
2022-08-18T12:22:15.616Z,4.70
2022-08-18T12:23:14.883Z,4.94
2022-08-18T12:24:26.104Z,4.82
2022-08-18T12:25:26.202Z,4.73
2022-08-18T12:26:38.122Z,4.73
2022-08-18T12:27:36.761Z,4.59
2022-08-18T12:28:34.134Z,4.63
2022-08-18T12:29:36.666Z,4.40
2022-08-18T12:30:42.068Z,4.51
2022-08-18T12:31:42.692Z,5.17
2022-08-18T12:32:49.357Z,4.55
2022-08-18T12:35:11.899Z,4.52
2022-08-18T12:36:09.718Z,4.47
2022-08-18T12:38:52.308Z,4.74
2022-08-18T12:39:54.939Z,4.61
2022-08-18T12:40:53.261Z,4.84
2022-08-18T12:41:50.685Z,4.72
2022-08-18T12:42:50.124Z,4.59
2022-08-18T12:45:05.845Z,3.95
2022-08-18T12:46:06.553Z,4.22
2022-08-18T12:47:14.278Z,4.27
2022-08-18T12:48:12.049Z,4.67
2022-08-18T12:49:17.285Z,4.56
2022-08-18T12:50:14.752Z,4.77
2022-08-18T12:51:13.626Z,4.73
2022-08-18T12:52:12.095Z,4.30
2022-08-18T12:53:12.487Z,4.33
2022-08-18T12:54:10.493Z,4.50
2022-08-18T12:55:22.079Z,4.61
2022-08-18T12:56:23.161Z,4.97
2022-08-18T12:58:41.542Z,4.84
2022-08-18T12:59:38.954Z,4.47
2022-08-18T13:00:41.050Z,4.66
2022-08-18T13:02:57.757Z,5.15
2022-08-18T13:04:13.184Z,4.71
2022-08-18T13:05:11.756Z,5.07
2022-08-18T13:06:09.984Z,5.08
2022-08-18T13:07:10.042Z,4.89
2022-08-18T13:08:30.136Z,5.11
2022-08-18T13:09:35.222Z,5.22
2022-08-18T13:10:51.183Z,5.01
2022-08-18T13:11:49.081Z,4.83
2022-08-18T13:12:47.637Z,5.06
2022-08-18T13:13:45.317Z,5.09
2022-08-18T13:14:46.906Z,5.35
2022-08-18T13:15:57.861Z,5.46
2022-08-18T13:16:56.193Z,5.09
2022-08-18T13:17:55.244Z,4.91
2022-08-18T13:18:52.935Z,4.81
2022-08-18T13:19:50.546Z,5.02
2022-08-18T13:20:47.916Z,5.38
2022-08-18T13:21:49.570Z,5.24
2022-08-18T13:22:48.051Z,5.31
2022-08-18T13:23:47.663Z,4.95
2022-08-18T13:24:46.315Z,5.26
2022-08-18T13:25:44.679Z,5.15
2022-08-18T13:26:46.393Z,4.75
2022-08-18T13:27:45.252Z,4.82
2022-08-18T13:28:57.117Z,5.47
2022-08-18T13:29:56.323Z,5.26
2022-08-18T13:30:54.091Z,4.88
2022-08-18T13:31:59.198Z,4.81
2022-08-18T13:32:58.784Z,4.90
2022-08-18T13:34:00.058Z,5.03
2022-08-18T13:35:02.470Z,4.96
2022-08-18T13:36:00.431Z,4.91
2022-08-18T13:36:57.907Z,5.12
2022-08-18T13:37:56.903Z,5.03
2022-08-18T13:38:54.733Z,4.71
2022-08-18T13:39:52.723Z,4.92
2022-08-18T13:40:50.961Z,5.07
2022-08-18T13:41:49.896Z,4.74
2022-08-18T13:42:50.762Z,4.42
2022-08-18T13:43:48.625Z,4.88
2022-08-18T13:44:52.943Z,5.25
2022-08-18T13:45:52.849Z,5.29
2022-08-18T13:46:52.206Z,4.89
2022-08-18T13:47:50.188Z,4.67
2022-08-18T13:48:49.441Z,4.46
2022-08-18T13:49:58.380Z,4.59
2022-08-18T13:50:59.965Z,4.64
2022-08-18T13:52:00.890Z,4.67
2022-08-18T13:53:03.547Z,5.13
2022-08-18T13:54:30.841Z,5.15
2022-08-18T13:55:21.307Z,4.92
2022-08-18T13:56:19.803Z,5.00
2022-08-18T13:57:17.258Z,5.11
2022-08-18T13:58:20.743Z,5.06
2022-08-18T13:59:20.571Z,4.99
2022-08-18T14:00:27.792Z,5.35
2022-08-18T14:01:50.126Z,5.72
2022-08-18T14:02:55.595Z,5.44
2022-08-18T14:03:53.874Z,5.46
2022-08-18T14:04:54.873Z,5.73
2022-08-18T14:05:57.581Z,5.50
2022-08-18T14:07:00.513Z,5.71
2022-08-18T14:08:00.001Z,5.73
2022-08-18T14:08:57.483Z,5.65
2022-08-18T14:09:55.935Z,5.49
2022-08-18T14:10:55.963Z,5.87
2022-08-18T14:11:53.514Z,5.73
2022-08-18T14:12:54.333Z,5.45
2022-08-18T14:13:55.115Z,4.94
2022-08-18T14:14:54.311Z,5.85
2022-08-18T14:15:55.000Z,5.24
2022-08-18T14:16:53.474Z,5.84